This is the latest recevied weather packets stored in our database for station/object HB9FHL-13. If no packets are shown the sender has not sent any weather packets the latest 10 day(s).
| Time | Temp. | Humidity | Pressure | Rain* | Wind** | Luminosity | Snow |
|---|---|---|---|---|---|---|---|
| 1788551511 | 25.56° C | - | 1022.4 hPa | 0 mm | - | - | - |
| 1788551211 | 25.56° C | - | 1021.3 hPa | 0 mm | - | - | - |
| 1788550910 | 25° C | - | 1019.6 hPa | 0 mm | - | - | - |
| 1788550610 | 25.56° C | - | 1022.1 hPa | 0 mm | - | - | - |
| 1788550309 | 25.56° C | - | 1018.8 hPa | 0 mm | - | - | - |
| 1788550009 | 26.67° C | - | 1021.1 hPa | 0 mm | - | - | - |
| 1788549708 | 26.11° C | - | 1018.3 hPa | 0 mm | - | - | - |
| 1788549408 | 26.67° C | - | 1016.4 hPa | 0 mm | - | - | - |
| 1788549107 | 27.22° C | - | 1022.8 hPa | 0 mm | - | - | - |
| 1788548807 | 27.22° C | - | 1024 hPa | 0 mm | - | - | - |
| 1788548506 | 25.56° C | - | 1020.5 hPa | 0 mm | - | - | - |
| 1788548205 | 26.67° C | - | 1025.5 hPa | 0 mm | - | - | - |
| 1788547908 | 25° C | - | 1018.6 hPa | 0 mm | - | - | - |
| 1788547602 | 26.11° C | - | 1023.1 hPa | 0 mm | - | - | - |
| 1788547302 | 26.67° C | - | 1022.1 hPa | 0 mm | - | - | - |
| 1788547001 | 26.67° C | - | 1016.1 hPa | 0 mm | - | - | - |
| 1788546700 | 25.56° C | - | 1013.5 hPa | 0 mm | - | - | - |
| 1788546400 | 26.11° C | - | 1017.1 hPa | 0 mm | - | - | - |
| 1788546099 | 26.67° C | - | 1025 hPa | 0 mm | - | - | - |
| 1788545799 | 26.67° C | - | 1019.4 hPa | 0 mm | - | - | - |
| 1788545498 | 25° C | - | 1013 hPa | 0 mm | - | - | - |
| 1788545198 | 26.67° C | - | 1020.2 hPa | 0 mm | - | - | - |
| 1788544940 | 27.22° C | - | 1015.8 hPa | 0 mm | - | - | - |
| 1788544897 | 27.22° C | - | 1015.8 hPa | 0 mm | - | - | - |
| 1788544625 | 26.67° C | - | 1010.9 hPa | 0 mm | - | - | - |
* Rain since midnight (hover to see other rain measurements)
** Current wind speed in m/s (hover to see current wind gust speed)